Roi Et, Thailand
Current Conditions -  °F | °C
As of 11:00 PM on Friday 24 Oct 2014 (Local Time) from VTUK Reporting Station
Scattered Clouds Scattered Clouds  
Wind Chill: 75°   Ceiling: Unl
Heat Index: 75°   Visibility: 6mi
Dew Point: 72°   Wind: 2mph
Humidity: 89%   Direction: NA
Pressure: 29.91"   Gusts: NA
Location:  16.05°N, 103.65°E
Report Text: VTUK 241600Z VRB02KT 9999 FEW020CB SCT025 24/22 Q1013 A2992NOSIG
Loading
Personal Weather Stations






























Interactive Weather Map
Tropical Storm Tracking
New forecast layout! Learn more

10-Day Weather Forecast

Advertisements
Track Severe Weather on mobile